createdAt,value
2019-03-05T00:04:20.638Z,6.45
2019-03-05T00:09:22.620Z,6.59
2019-03-05T00:14:24.175Z,6.57
2019-03-05T00:19:25.773Z,6.58
2019-03-05T00:24:58.954Z,6.63
2019-03-05T00:30:48.528Z,6.70
2019-03-05T00:36:17.434Z,6.68
2019-03-05T00:41:56.000Z,6.74
2019-03-05T00:47:27.554Z,6.76
2019-03-05T00:53:11.090Z,6.80
2019-03-05T00:58:23.259Z,6.84
2019-03-05T01:03:59.958Z,6.83
2019-03-05T01:09:03.345Z,6.86
2019-03-05T01:14:04.874Z,6.78
2019-03-05T01:19:06.915Z,6.77
2019-03-05T01:24:08.454Z,6.74
2019-03-05T01:29:10.061Z,6.54
2019-03-05T01:34:12.080Z,6.39
2019-03-05T01:39:13.962Z,6.31
2019-03-05T01:44:15.618Z,6.23
2019-03-05T01:49:17.267Z,6.12
2019-03-05T01:54:18.797Z,6.08
2019-03-05T01:59:20.429Z,6.09
2019-03-05T02:04:22.379Z,5.97
2019-03-05T02:09:23.916Z,5.89
2019-03-05T02:14:25.951Z,5.82
2019-03-05T02:19:56.352Z,5.71
2019-03-05T02:25:41.212Z,5.78
2019-03-05T02:31:04.050Z,5.98
2019-03-05T02:36:14.448Z,6.05
2019-03-05T02:42:02.892Z,6.01
2019-03-05T02:47:35.564Z,5.87
2019-03-05T02:53:18.118Z,5.75
2019-03-05T02:58:18.628Z,5.66
2019-03-05T03:03:20.205Z,5.59
2019-03-05T03:08:21.822Z,5.54
2019-03-05T03:13:23.446Z,5.45
2019-03-05T03:18:25.009Z,5.37
2019-03-05T03:23:27.056Z,5.51
2019-03-05T03:28:28.706Z,5.46
2019-03-05T03:33:30.540Z,5.55
2019-03-05T03:38:32.085Z,5.53
2019-03-05T03:43:33.650Z,5.45
2019-03-05T03:48:35.181Z,5.46
2019-03-05T03:53:36.757Z,5.44
2019-03-05T03:58:38.706Z,5.45
2019-03-05T04:03:40.238Z,5.38
2019-03-05T04:08:41.774Z,5.44
2019-03-05T04:13:43.378Z,5.48
2019-03-05T04:18:44.986Z,5.52
2019-03-05T04:23:46.873Z,5.43
2019-03-05T04:28:48.839Z,5.39
2019-03-05T04:33:50.878Z,5.35
2019-03-05T04:38:52.482Z,5.22
2019-03-05T04:43:54.052Z,5.18
2019-03-05T04:48:56.020Z,5.24
2019-03-05T04:53:57.606Z,5.37
2019-03-05T04:58:59.184Z,5.39
2019-03-05T05:04:00.726Z,5.49
2019-03-05T05:09:03.514Z,5.51
2019-03-05T05:14:05.096Z,5.55
2019-03-05T05:19:06.684Z,5.58
2019-03-05T05:24:08.239Z,5.65
2019-03-05T05:29:09.842Z,5.71
2019-03-05T05:34:11.384Z,5.72
2019-03-05T05:39:52.538Z,5.75
2019-03-05T05:44:54.453Z,5.67
2019-03-05T05:49:56.459Z,5.66
2019-03-05T05:54:58.015Z,5.63
2019-03-05T05:59:59.601Z,5.53
2019-03-05T06:05:01.555Z,5.48
2019-03-05T06:10:03.646Z,5.47
2019-03-05T06:15:06.087Z,5.52
2019-03-05T06:20:08.881Z,5.47
2019-03-05T06:25:10.819Z,5.52
2019-03-05T06:30:13.045Z,5.54
2019-03-05T06:35:14.639Z,5.52
2019-03-05T06:40:16.288Z,5.53
2019-03-05T06:45:19.981Z,5.53
2019-03-05T06:50:21.595Z,5.53
2019-03-05T06:55:23.264Z,5.56
2019-03-05T07:00:25.188Z,5.63
2019-03-05T07:06:03.949Z,5.62
2019-03-05T07:11:14.366Z,5.63
2019-03-05T07:16:26.943Z,5.59
2019-03-05T07:22:03.845Z,5.54
2019-03-05T07:27:06.282Z,5.45
2019-03-05T07:32:07.889Z,5.33
2019-03-05T07:37:09.909Z,5.59
2019-03-05T07:42:11.505Z,5.82
2019-03-05T07:47:13.119Z,6.12
2019-03-05T07:52:14.701Z,6.14
2019-03-05T07:57:16.420Z,6.18
2019-03-05T08:02:18.019Z,6.34
2019-03-05T08:07:19.695Z,6.45
2019-03-05T08:12:53.776Z,6.52
2019-03-05T08:17:55.406Z,6.61
2019-03-05T08:22:57.020Z,6.87
2019-03-05T08:27:58.648Z,6.99
2019-03-05T08:33:00.175Z,6.73
2019-03-05T08:38:01.700Z,6.86
2019-03-05T08:43:03.406Z,6.77
2019-03-05T08:48:04.941Z,6.84
2019-03-05T08:53:06.547Z,6.74
2019-03-05T08:58:08.418Z,6.89
2019-03-05T09:03:09.985Z,7.05
2019-03-05T09:08:11.562Z,7.13
2019-03-05T09:13:13.077Z,7.13
2019-03-05T09:18:14.892Z,7.29
2019-03-05T09:23:16.458Z,7.51
2019-03-05T09:28:18.146Z,7.75
2019-03-05T09:33:21.542Z,7.96
2019-03-05T09:38:23.422Z,8.17
2019-03-05T09:43:24.996Z,8.24
2019-03-05T09:48:26.654Z,8.18
2019-03-05T09:53:28.278Z,8.71
2019-03-05T09:58:29.880Z,9.22
2019-03-05T10:03:31.926Z,9.48
2019-03-05T10:08:33.551Z,9.83
2019-03-05T10:13:35.601Z,9.91
2019-03-05T10:18:39.305Z,9.45
2019-03-05T10:23:40.680Z,9.56
2019-03-05T10:28:42.350Z,10.23
2019-03-05T10:33:44.046Z,10.21
2019-03-05T10:38:56.636Z,10.03
2019-03-05T10:43:49.182Z,9.77
2019-03-05T10:48:50.798Z,9.97
2019-03-05T10:53:52.856Z,10.38
2019-03-05T10:58:54.522Z,10.84
2019-03-05T11:03:56.123Z,10.86
2019-03-05T11:08:57.680Z,11.03
2019-03-05T11:13:59.278Z,11.27
2019-03-05T11:19:01.364Z,11.28
2019-03-05T11:24:03.402Z,11.53
2019-03-05T11:29:05.059Z,11.57
2019-03-05T11:34:06.982Z,11.41
2019-03-05T11:39:08.597Z,11.52
2019-03-05T11:44:10.244Z,11.36
2019-03-05T11:49:11.904Z,11.19
2019-03-05T11:54:13.603Z,11.43
2019-03-05T11:59:15.557Z,11.37
2019-03-05T12:04:17.236Z,11.52
2019-03-05T12:09:19.342Z,11.59
2019-03-05T12:14:20.931Z,11.84
2019-03-05T12:19:22.745Z,11.67
2019-03-05T12:24:25.634Z,11.58
2019-03-05T12:29:27.398Z,11.52
2019-03-05T12:34:28.991Z,11.42
2019-03-05T12:39:30.701Z,11.97
2019-03-05T12:44:32.467Z,12.06
2019-03-05T12:49:33.997Z,12.12
2019-03-05T12:54:35.595Z,12.37
2019-03-05T12:59:37.240Z,12.55
2019-03-05T13:04:38.813Z,13.02
2019-03-05T13:09:41.483Z,13.10
2019-03-05T13:14:43.873Z,12.59
2019-03-05T13:19:47.998Z,12.48
2019-03-05T13:24:50.255Z,12.76
2019-03-05T13:29:52.683Z,12.78
2019-03-05T13:34:54.219Z,13.03
2019-03-05T13:39:58.217Z,13.07
2019-03-05T13:44:59.664Z,13.00
2019-03-05T13:50:53.011Z,12.61
2019-03-05T13:56:21.779Z,12.05
2019-03-05T14:01:23.344Z,11.65
2019-03-05T14:07:11.782Z,11.39
2019-03-05T14:12:13.661Z,11.27
2019-03-05T14:17:15.391Z,11.54
2019-03-05T14:22:16.955Z,11.77
2019-03-05T14:27:18.495Z,11.76
2019-03-05T14:32:20.450Z,11.75
2019-03-05T14:37:22.162Z,11.59
2019-03-05T14:42:24.023Z,11.68
2019-03-05T14:47:25.601Z,11.58
2019-03-05T14:52:27.254Z,11.61
2019-03-05T14:57:28.801Z,11.74
2019-03-05T15:02:30.527Z,11.93
2019-03-05T15:07:32.464Z,12.02
2019-03-05T15:12:34.757Z,12.13
2019-03-05T15:17:36.339Z,12.09
2019-03-05T15:22:37.956Z,11.96
2019-03-05T15:27:39.564Z,12.01
2019-03-05T15:32:42.791Z,11.86
2019-03-05T15:37:44.767Z,11.86
2019-03-05T15:42:46.334Z,11.69
2019-03-05T15:47:47.954Z,11.74
2019-03-05T15:52:49.681Z,11.68
2019-03-05T15:57:51.269Z,11.64
2019-03-05T16:02:52.844Z,11.65
2019-03-05T16:07:56.526Z,11.60
2019-03-05T16:12:58.179Z,11.64
2019-03-05T16:18:01.381Z,11.58
2019-03-05T16:23:04.252Z,11.40
2019-03-05T16:28:07.389Z,11.23
2019-03-05T16:33:09.267Z,11.07
2019-03-05T16:38:10.875Z,10.91
2019-03-05T16:43:12.432Z,10.70
2019-03-05T16:48:14.055Z,10.59
2019-03-05T16:53:15.620Z,10.48
2019-03-05T16:58:17.202Z,10.37
2019-03-05T17:03:18.733Z,10.27
2019-03-05T17:08:20.341Z,10.11
2019-03-05T17:13:22.138Z,9.96
2019-03-05T17:18:24.639Z,9.82
2019-03-05T17:23:27.125Z,9.64
2019-03-05T17:28:28.666Z,9.45
2019-03-05T17:33:30.704Z,9.36
2019-03-05T17:38:32.246Z,9.19
2019-03-05T17:43:33.949Z,9.05
2019-03-05T17:48:35.625Z,9.11
2019-03-05T17:53:37.267Z,8.79
2019-03-05T17:58:39.627Z,8.68
2019-03-05T18:03:42.283Z,8.58
2019-03-05T18:08:44.226Z,8.44
2019-03-05T18:13:45.837Z,8.34
2019-03-05T18:18:47.418Z,8.24
2019-03-05T18:23:49.017Z,8.13
2019-03-05T18:28:50.557Z,8.03
2019-03-05T18:33:52.124Z,7.96
2019-03-05T18:38:54.157Z,7.86
2019-03-05T18:43:56.083Z,7.79
2019-03-05T18:48:57.742Z,7.72
2019-03-05T18:53:59.406Z,7.66
2019-03-05T18:59:01.036Z,7.61
2019-03-05T19:04:02.711Z,7.56
2019-03-05T19:09:04.870Z,7.53
2019-03-05T19:14:06.492Z,7.47
2019-03-05T19:19:08.116Z,7.37
2019-03-05T19:24:09.698Z,7.31
2019-03-05T19:29:12.068Z,7.27
2019-03-05T19:34:13.709Z,7.23
2019-03-05T19:39:15.791Z,7.17
2019-03-05T19:44:17.569Z,7.13
2019-03-05T19:49:19.323Z,7.10
2019-03-05T19:54:21.039Z,7.03
2019-03-05T19:59:22.605Z,6.98
2019-03-05T20:04:24.296Z,6.94
2019-03-05T20:09:25.907Z,6.88
2019-03-05T20:14:27.778Z,6.83
2019-03-05T20:19:29.617Z,6.77
2019-03-05T20:24:31.575Z,6.72
2019-03-05T20:29:33.550Z,6.65
2019-03-05T20:34:35.596Z,6.61
2019-03-05T20:39:37.503Z,6.58
2019-03-05T20:44:40.114Z,6.55
2019-03-05T20:49:42.226Z,6.58
2019-03-05T20:54:43.869Z,6.54
2019-03-05T20:59:45.769Z,6.55
2019-03-05T21:04:47.429Z,6.57
2019-03-05T21:09:49.228Z,6.56
2019-03-05T21:14:50.926Z,6.53
2019-03-05T21:19:52.533Z,6.55
2019-03-05T21:24:54.176Z,6.55
2019-03-05T21:29:55.824Z,6.55
2019-03-05T21:34:57.492Z,6.54
2019-03-05T21:39:59.566Z,6.51
2019-03-05T21:45:03.976Z,6.51
2019-03-05T21:50:07.036Z,6.48
2019-03-05T21:55:08.954Z,6.52
2019-03-05T22:00:19.248Z,6.57
2019-03-05T22:05:20.798Z,6.69
2019-03-05T22:10:22.522Z,6.79
2019-03-05T22:15:24.604Z,6.90
2019-03-05T22:20:26.193Z,7.00
2019-03-05T22:25:29.017Z,7.09
2019-03-05T22:30:31.367Z,7.16
2019-03-05T22:35:32.950Z,7.19
2019-03-05T22:40:34.530Z,7.25
2019-03-05T22:45:36.797Z,7.29
2019-03-05T22:50:38.364Z,7.32
2019-03-05T22:55:40.342Z,7.35
2019-03-05T23:01:05.700Z,7.44
2019-03-05T23:06:07.992Z,7.51
2019-03-05T23:11:09.513Z,7.53
2019-03-05T23:16:11.102Z,7.52
2019-03-05T23:21:12.629Z,7.51
2019-03-05T23:26:14.243Z,7.46
2019-03-05T23:31:15.800Z,7.47
2019-03-05T23:36:17.315Z,7.50
2019-03-05T23:41:18.861Z,7.52
2019-03-05T23:46:20.524Z,7.48
2019-03-05T23:51:22.574Z,7.46
2019-03-05T23:56:24.184Z,7.43
